createdAt,value
2023-10-21T00:03:09.770Z,53.16
2023-10-21T00:08:12.559Z,53.26
2023-10-21T00:13:15.171Z,53.24
2023-10-21T00:18:17.838Z,53.03
2023-10-21T00:23:20.434Z,52.64
2023-10-21T00:28:23.013Z,52.49
2023-10-21T00:33:25.607Z,52.13
2023-10-21T00:38:28.334Z,51.93
2023-10-21T00:43:40.248Z,51.79
2023-10-21T00:48:43.680Z,51.55
2023-10-21T00:53:46.520Z,51.22
2023-10-21T00:58:49.139Z,51.15
2023-10-21T01:03:52.196Z,50.90
2023-10-21T01:08:55.746Z,50.59
2023-10-21T01:13:58.670Z,50.32
2023-10-21T01:19:01.251Z,50.06
2023-10-21T01:24:04.035Z,49.79
2023-10-21T01:29:12.005Z,49.55
2023-10-21T01:34:16.628Z,49.33
2023-10-21T01:39:20.483Z,49.46
2023-10-21T01:44:23.083Z,49.29
2023-10-21T01:49:26.068Z,49.43
2023-10-21T01:54:29.245Z,49.32
2023-10-21T01:59:31.803Z,49.39
2023-10-21T02:04:34.556Z,49.37
2023-10-21T02:09:38.392Z,49.55
2023-10-21T02:14:40.960Z,49.59
2023-10-21T02:19:43.581Z,49.65
2023-10-21T02:24:46.125Z,49.93
2023-10-21T02:29:48.744Z,49.98
2023-10-21T02:34:55.751Z,50.24
2023-10-21T02:39:58.522Z,50.52
2023-10-21T02:45:01.579Z,50.85
2023-10-21T02:50:08.501Z,50.96
2023-10-21T02:55:13.210Z,51.05
2023-10-21T03:00:19.371Z,51.08
2023-10-21T03:05:22.038Z,50.98
2023-10-21T03:10:24.889Z,50.86
2023-10-21T03:15:28.261Z,50.42
2023-10-21T03:20:34.795Z,50.18
2023-10-21T03:25:37.339Z,50.18
2023-10-21T03:30:39.825Z,50.12
2023-10-21T03:36:02.873Z,50.45
2023-10-21T03:41:10.679Z,50.70
2023-10-21T03:46:16.184Z,50.47
2023-10-21T03:51:19.517Z,50.77
2023-10-21T03:56:22.119Z,51.24
2023-10-21T04:01:24.722Z,51.41
2023-10-21T04:06:27.585Z,51.59
2023-10-21T04:11:30.280Z,51.62
2023-10-21T04:16:33.634Z,51.62
2023-10-21T04:21:36.201Z,51.64
2023-10-21T04:26:38.758Z,51.49
2023-10-21T04:31:41.298Z,51.80
2023-10-21T04:36:43.831Z,51.75
2023-10-21T04:41:49.895Z,51.77
2023-10-21T04:46:52.497Z,51.87
2023-10-21T04:51:55.410Z,52.00
2023-10-21T04:56:58.001Z,52.19
2023-10-21T05:02:00.629Z,52.54
2023-10-21T05:07:04.173Z,52.92
2023-10-21T05:12:07.971Z,53.11
2023-10-21T05:17:11.153Z,53.40
2023-10-21T05:22:14.482Z,53.85
2023-10-21T05:27:17.152Z,53.87
2023-10-21T05:32:19.829Z,54.35
2023-10-21T05:37:22.717Z,54.87
2023-10-21T05:42:25.293Z,55.85
2023-10-21T05:47:28.061Z,57.13
2023-10-21T05:52:30.960Z,57.16
2023-10-21T05:57:33.606Z,57.34
2023-10-21T06:02:36.339Z,57.46
2023-10-21T06:07:38.984Z,57.44
2023-10-21T06:12:41.496Z,57.76
2023-10-21T06:17:44.123Z,57.71
2023-10-21T06:22:46.893Z,57.93
2023-10-21T06:27:49.425Z,58.00
2023-10-21T06:32:52.407Z,58.09
2023-10-21T06:37:55.155Z,58.33
2023-10-21T06:42:57.814Z,58.66
2023-10-21T06:48:03.524Z,58.98
2023-10-21T06:53:07.597Z,58.58
2023-10-21T06:58:11.485Z,59.00
2023-10-21T07:03:14.459Z,59.07
2023-10-21T07:08:17.616Z,59.12
2023-10-21T07:13:20.957Z,59.22
2023-10-21T07:18:23.986Z,59.31
2023-10-21T07:23:27.386Z,59.94
2023-10-21T07:28:30.947Z,59.99
2023-10-21T07:33:34.029Z,60.68
2023-10-21T07:38:37.117Z,60.63
2023-10-21T07:43:41.372Z,62.71
2023-10-21T07:48:44.411Z,63.54
2023-10-21T07:53:48.036Z,63.75
2023-10-21T07:58:51.854Z,63.75
2023-10-21T08:04:02.098Z,64.83
2023-10-21T08:09:05.996Z,64.82
2023-10-21T08:14:09.084Z,64.61
2023-10-21T08:19:11.868Z,64.34
2023-10-21T08:24:14.749Z,63.84
2023-10-21T08:29:18.079Z,63.51
2023-10-21T08:34:21.864Z,63.77
2023-10-21T08:39:24.893Z,63.46
2023-10-21T08:44:30.077Z,63.44
2023-10-21T08:49:35.307Z,63.93
2023-10-21T08:54:39.889Z,64.22
2023-10-21T08:59:43.676Z,64.70
2023-10-21T09:04:47.405Z,64.91
2023-10-21T09:09:51.044Z,64.91
2023-10-21T09:15:03.210Z,65.72
2023-10-21T09:20:35.771Z,67.41
2023-10-21T09:25:41.597Z,68.12
2023-10-21T09:31:28.478Z,68.65
2023-10-21T09:36:41.641Z,68.95
2023-10-21T09:41:47.929Z,69.64
2023-10-21T09:46:53.926Z,69.93
2023-10-21T09:52:16.555Z,70.59
2023-10-21T09:57:21.123Z,71.35
2023-10-21T10:02:26.459Z,71.64
2023-10-21T10:07:40.349Z,71.65
2023-10-21T10:13:16.430Z,71.70
2023-10-21T10:18:23.594Z,71.70
2023-10-21T10:23:27.083Z,71.70
2023-10-21T10:28:30.888Z,71.72
2023-10-21T10:33:36.932Z,71.74
2023-10-21T10:38:46.810Z,71.75
2023-10-21T10:43:57.178Z,71.66
2023-10-21T10:49:07.301Z,71.60
2023-10-21T10:54:13.807Z,71.63
2023-10-21T10:59:22.056Z,71.82
2023-10-21T11:04:28.008Z,71.88
2023-10-21T11:09:32.433Z,71.90
2023-10-21T11:14:38.598Z,71.84
2023-10-21T11:19:41.902Z,71.90
2023-10-21T11:24:44.535Z,71.53
2023-10-21T11:29:51.109Z,72.06
2023-10-21T11:34:54.212Z,72.12
2023-10-21T11:39:57.281Z,71.81
2023-10-21T11:45:02.782Z,71.94
2023-10-21T11:50:10.879Z,72.19
2023-10-21T11:55:13.678Z,72.30
2023-10-21T12:00:33.314Z,72.35
2023-10-21T12:05:55.087Z,72.01
2023-10-21T12:10:58.029Z,71.96
2023-10-21T12:16:27.430Z,71.80
2023-10-21T12:21:45.939Z,71.70
2023-10-21T12:26:58.132Z,71.67
2023-10-21T12:32:16.401Z,71.54
2023-10-21T12:37:37.245Z,71.91
2023-10-21T12:42:48.050Z,72.15
2023-10-21T12:47:51.257Z,72.14
2023-10-21T12:52:56.025Z,72.19
2023-10-21T12:57:58.982Z,73.14
2023-10-21T13:03:02.536Z,73.50
2023-10-21T13:08:10.908Z,74.46
2023-10-21T13:13:19.156Z,75.26
2023-10-21T13:18:25.083Z,75.70
2023-10-21T13:23:29.588Z,76.12
2023-10-21T13:28:32.637Z,76.04
2023-10-21T13:33:37.241Z,76.34
2023-10-21T13:38:40.504Z,75.98
2023-10-21T13:43:44.102Z,76.29
2023-10-21T13:48:47.002Z,75.93
2023-10-21T13:53:50.121Z,75.55
2023-10-21T13:58:56.555Z,75.20
2023-10-21T14:04:02.081Z,74.87
2023-10-21T14:09:09.247Z,75.58
2023-10-21T14:14:14.268Z,74.89
2023-10-21T14:19:19.128Z,75.20
2023-10-21T14:24:22.192Z,75.12
2023-10-21T14:29:24.946Z,75.45
2023-10-21T14:34:27.811Z,75.28
2023-10-21T14:39:31.417Z,75.72
2023-10-21T14:44:35.690Z,76.10
2023-10-21T14:49:40.809Z,76.24
2023-10-21T14:54:45.291Z,76.35
2023-10-21T14:59:48.448Z,76.62
2023-10-21T15:04:59.130Z,75.83
2023-10-21T15:10:23.858Z,75.97
2023-10-21T15:15:29.469Z,75.86
2023-10-21T15:20:32.959Z,75.88
2023-10-21T15:25:35.888Z,75.99
2023-10-21T15:30:53.438Z,75.93
2023-10-21T15:35:58.330Z,75.95
2023-10-21T15:41:06.929Z,76.08
2023-10-21T15:46:10.717Z,75.62
2023-10-21T15:51:22.827Z,76.00
2023-10-21T15:56:26.900Z,76.27
2023-10-21T16:01:38.391Z,76.78
2023-10-21T16:06:46.225Z,76.41
2023-10-21T16:11:52.860Z,76.45
2023-10-21T16:16:58.286Z,75.97
2023-10-21T16:22:02.383Z,75.45
2023-10-21T16:27:05.338Z,75.42
2023-10-21T16:32:09.901Z,74.78
2023-10-21T16:37:33.104Z,74.20
2023-10-21T16:42:39.591Z,74.15
2023-10-21T16:47:42.989Z,73.21
2023-10-21T16:52:46.763Z,72.41
2023-10-21T16:57:49.627Z,72.29
2023-10-21T17:02:52.643Z,71.75
2023-10-21T17:07:55.323Z,70.81
2023-10-21T17:13:00.495Z,71.28
2023-10-21T17:18:04.925Z,70.93
2023-10-21T17:23:07.637Z,70.89
2023-10-21T17:28:10.442Z,70.86
2023-10-21T17:33:16.296Z,71.10
2023-10-21T17:38:19.617Z,71.00
2023-10-21T17:43:22.496Z,69.09
2023-10-21T17:48:26.337Z,67.62
2023-10-21T17:53:31.635Z,67.15
2023-10-21T17:58:35.371Z,67.24
2023-10-21T18:03:38.784Z,67.43
2023-10-21T18:08:50.322Z,67.51
2023-10-21T18:13:57.406Z,67.69
2023-10-21T18:19:03.846Z,68.27
2023-10-21T18:24:08.288Z,68.10
2023-10-21T18:29:11.418Z,68.09
2023-10-21T18:34:14.746Z,67.51
2023-10-21T18:39:20.230Z,67.68
2023-10-21T18:44:23.378Z,67.10
2023-10-21T18:49:28.493Z,67.23
2023-10-21T18:54:32.783Z,67.06
2023-10-21T18:59:38.731Z,66.93
2023-10-21T19:04:41.509Z,66.70
2023-10-21T19:09:46.583Z,66.57
2023-10-21T19:14:49.582Z,66.83
2023-10-21T19:19:52.996Z,66.68
2023-10-21T19:24:55.878Z,66.63
2023-10-21T19:30:00.196Z,66.47
2023-10-21T19:35:02.844Z,65.76
2023-10-21T19:40:06.508Z,65.74
2023-10-21T19:45:10.830Z,65.84
2023-10-21T19:50:13.448Z,65.68
2023-10-21T19:55:17.726Z,65.17
2023-10-21T20:00:21.505Z,64.55
2023-10-21T20:05:24.393Z,63.94
2023-10-21T20:10:28.941Z,63.37
2023-10-21T20:15:32.791Z,62.60
2023-10-21T20:20:39.660Z,62.24
2023-10-21T20:25:42.253Z,61.50
2023-10-21T20:30:47.211Z,61.03
2023-10-21T20:35:50.870Z,61.06
2023-10-21T20:40:54.177Z,60.99
2023-10-21T20:45:58.367Z,60.15
2023-10-21T20:51:01.335Z,59.79
2023-10-21T20:56:03.976Z,60.14
2023-10-21T21:01:06.803Z,60.21
2023-10-21T21:06:09.702Z,59.77
2023-10-21T21:11:12.480Z,59.32
2023-10-21T21:16:15.161Z,59.18
2023-10-21T21:21:17.786Z,59.31
2023-10-21T21:26:20.410Z,59.25
2023-10-21T21:31:23.034Z,59.11
2023-10-21T21:36:25.733Z,58.79
2023-10-21T21:41:28.335Z,58.36
2023-10-21T21:46:30.952Z,58.56
2023-10-21T21:51:35.493Z,57.72
2023-10-21T21:56:38.041Z,57.49
2023-10-21T22:01:43.443Z,57.67
2023-10-21T22:06:46.536Z,57.99
2023-10-21T22:11:49.205Z,58.18
2023-10-21T22:16:53.173Z,58.24
2023-10-21T22:21:55.867Z,58.31
2023-10-21T22:26:58.487Z,58.35
2023-10-21T22:32:01.472Z,57.98
2023-10-21T22:37:05.544Z,57.69
2023-10-21T22:42:08.417Z,57.98
2023-10-21T22:47:12.180Z,58.04
2023-10-21T22:52:14.699Z,58.18
2023-10-21T22:57:17.252Z,57.87
2023-10-21T23:02:19.763Z,57.62
2023-10-21T23:07:22.895Z,57.57
2023-10-21T23:12:25.389Z,57.15
2023-10-21T23:17:27.944Z,56.98
2023-10-21T23:22:30.464Z,56.71
2023-10-21T23:27:33.009Z,56.96
2023-10-21T23:32:36.170Z,56.88
2023-10-21T23:37:44.045Z,56.89
2023-10-21T23:42:49.990Z,56.67
2023-10-21T23:47:52.858Z,57.50
2023-10-21T23:52:57.309Z,57.65
2023-10-21T23:57:59.950Z,58.31
